sensor_id;sensor_type;location;lat;lon;timestamp;P1;durP1;ratioP1;P2;durP2;ratioP2
60979;SDS011;46851;49.160;8.980;2023-08-12T00:01:25;7.78;;;4.68;;
60979;SDS011;46851;49.160;8.980;2023-08-12T00:03:51;9.00;;;4.72;;
60979;SDS011;46851;49.160;8.980;2023-08-12T00:06:17;6.20;;;4.05;;
60979;SDS011;46851;49.160;8.980;2023-08-12T00:08:43;6.15;;;4.40;;
60979;SDS011;46851;49.160;8.980;2023-08-12T00:11:09;6.70;;;5.18;;
60979;SDS011;46851;49.160;8.980;2023-08-12T00:13:35;6.38;;;4.65;;
60979;SDS011;46851;49.160;8.980;2023-08-12T00:16:01;7.30;;;4.13;;
60979;SDS011;46851;49.160;8.980;2023-08-12T00:18:27;5.20;;;4.32;;
60979;SDS011;46851;49.160;8.980;2023-08-12T00:20:53;7.65;;;4.35;;
60979;SDS011;46851;49.160;8.980;2023-08-12T00:23:20;6.70;;;4.38;;
60979;SDS011;46851;49.160;8.980;2023-08-12T00:25:46;7.38;;;4.57;;
60979;SDS011;46851;49.160;8.980;2023-08-12T00:28:12;7.40;;;4.82;;
60979;SDS011;46851;49.160;8.980;2023-08-12T00:30:38;9.65;;;4.53;;
60979;SDS011;46851;49.160;8.980;2023-08-12T00:33:04;7.72;;;4.93;;
60979;SDS011;46851;49.160;8.980;2023-08-12T00:35:30;6.50;;;4.75;;
60979;SDS011;46851;49.160;8.980;2023-08-12T00:37:56;5.70;;;4.40;;
60979;SDS011;46851;49.160;8.980;2023-08-12T00:40:22;8.07;;;5.22;;
60979;SDS011;46851;49.160;8.980;2023-08-12T00:42:49;6.50;;;4.70;;
60979;SDS011;46851;49.160;8.980;2023-08-12T00:45:15;14.40;;;4.38;;
60979;SDS011;46851;49.160;8.980;2023-08-12T00:47:41;5.93;;;4.43;;
60979;SDS011;46851;49.160;8.980;2023-08-12T00:50:07;10.57;;;4.38;;
60979;SDS011;46851;49.160;8.980;2023-08-12T00:52:34;8.40;;;4.90;;
60979;SDS011;46851;49.160;8.980;2023-08-12T00:55:00;8.60;;;4.68;;
60979;SDS011;46851;49.160;8.980;2023-08-12T00:57:26;6.15;;;4.72;;
60979;SDS011;46851;49.160;8.980;2023-08-12T00:59:53;8.60;;;5.28;;
60979;SDS011;46851;49.160;8.980;2023-08-12T01:02:19;9.68;;;4.80;;
60979;SDS011;46851;49.160;8.980;2023-08-12T01:04:45;7.90;;;4.90;;
60979;SDS011;46851;49.160;8.980;2023-08-12T01:07:11;7.32;;;4.88;;
60979;SDS011;46851;49.160;8.980;2023-08-12T01:09:37;6.95;;;4.97;;
60979;SDS011;46851;49.160;8.980;2023-08-12T01:12:09;6.82;;;4.68;;
60979;SDS011;46851;49.160;8.980;2023-08-12T01:14:58;6.25;;;4.75;;
60979;SDS011;46851;49.160;8.980;2023-08-12T01:17:27;7.43;;;4.72;;
60979;SDS011;46851;49.160;8.980;2023-08-12T01:19:54;5.85;;;4.55;;
60979;SDS011;46851;49.160;8.980;2023-08-12T01:22:20;9.52;;;4.65;;
60979;SDS011;46851;49.160;8.980;2023-08-12T01:24:46;8.95;;;4.50;;
60979;SDS011;46851;49.160;8.980;2023-08-12T01:27:12;13.27;;;4.97;;
60979;SDS011;46851;49.160;8.980;2023-08-12T01:29:39;9.40;;;5.30;;
60979;SDS011;46851;49.160;8.980;2023-08-12T01:34:58;9.15;;;5.00;;
60979;SDS011;46851;49.160;8.980;2023-08-12T01:37:29;8.18;;;5.00;;
60979;SDS011;46851;49.160;8.980;2023-08-12T01:39:56;7.93;;;5.25;;
60979;SDS011;46851;49.160;8.980;2023-08-12T01:42:24;9.75;;;5.65;;
60979;SDS011;46851;49.160;8.980;2023-08-12T01:44:50;8.27;;;5.25;;
60979;SDS011;46851;49.160;8.980;2023-08-12T01:47:17;9.50;;;5.40;;
60979;SDS011;46851;49.160;8.980;2023-08-12T01:49:43;8.77;;;5.25;;
60979;SDS011;46851;49.160;8.980;2023-08-12T01:52:09;8.13;;;5.03;;
60979;SDS011;46851;49.160;8.980;2023-08-12T01:54:35;8.13;;;5.13;;
60979;SDS011;46851;49.160;8.980;2023-08-12T01:57:01;9.18;;;5.38;;
60979;SDS011;46851;49.160;8.980;2023-08-12T01:59:30;9.05;;;5.10;;
60979;SDS011;46851;49.160;8.980;2023-08-12T02:01:56;7.88;;;4.90;;
60979;SDS011;46851;49.160;8.980;2023-08-12T02:04:22;9.98;;;5.38;;
60979;SDS011;46851;49.160;8.980;2023-08-12T02:06:48;8.35;;;5.13;;
60979;SDS011;46851;49.160;8.980;2023-08-12T02:09:14;7.57;;;5.22;;
60979;SDS011;46851;49.160;8.980;2023-08-12T02:11:40;7.38;;;5.18;;
60979;SDS011;46851;49.160;8.980;2023-08-12T02:14:06;9.35;;;5.28;;
60979;SDS011;46851;49.160;8.980;2023-08-12T02:16:32;8.13;;;5.15;;
60979;SDS011;46851;49.160;8.980;2023-08-12T02:18:58;6.57;;;4.82;;
60979;SDS011;46851;49.160;8.980;2023-08-12T02:21:24;9.80;;;4.78;;
60979;SDS011;46851;49.160;8.980;2023-08-12T02:23:50;6.50;;;4.65;;
60979;SDS011;46851;49.160;8.980;2023-08-12T02:26:16;8.18;;;5.35;;
60979;SDS011;46851;49.160;8.980;2023-08-12T02:28:42;9.55;;;5.55;;
60979;SDS011;46851;49.160;8.980;2023-08-12T02:31:08;8.98;;;5.70;;
60979;SDS011;46851;49.160;8.980;2023-08-12T02:33:34;10.70;;;5.25;;
60979;SDS011;46851;49.160;8.980;2023-08-12T02:36:00;12.30;;;6.15;;
60979;SDS011;46851;49.160;8.980;2023-08-12T02:38:26;10.32;;;5.93;;
60979;SDS011;46851;49.160;8.980;2023-08-12T02:40:52;10.10;;;6.30;;
60979;SDS011;46851;49.160;8.980;2023-08-12T02:43:18;8.52;;;6.05;;
60979;SDS011;46851;49.160;8.980;2023-08-12T02:45:44;7.13;;;5.75;;
60979;SDS011;46851;49.160;8.980;2023-08-12T02:48:10;8.45;;;6.20;;
60979;SDS011;46851;49.160;8.980;2023-08-12T02:50:37;8.73;;;6.10;;
60979;SDS011;46851;49.160;8.980;2023-08-12T02:53:03;9.07;;;6.50;;
60979;SDS011;46851;49.160;8.980;2023-08-12T02:55:29;10.90;;;6.57;;
60979;SDS011;46851;49.160;8.980;2023-08-12T02:57:56;11.10;;;6.22;;
60979;SDS011;46851;49.160;8.980;2023-08-12T03:00:22;9.25;;;6.20;;
60979;SDS011;46851;49.160;8.980;2023-08-12T03:02:48;7.68;;;6.03;;
60979;SDS011;46851;49.160;8.980;2023-08-12T03:05:14;9.15;;;6.32;;
60979;SDS011;46851;49.160;8.980;2023-08-12T03:07:40;10.00;;;6.82;;
60979;SDS011;46851;49.160;8.980;2023-08-12T03:10:07;11.30;;;6.85;;
60979;SDS011;46851;49.160;8.980;2023-08-12T03:12:33;10.18;;;6.47;;
60979;SDS011;46851;49.160;8.980;2023-08-12T03:15:00;8.18;;;6.28;;
60979;SDS011;46851;49.160;8.980;2023-08-12T03:17:26;7.68;;;6.15;;
60979;SDS011;46851;49.160;8.980;2023-08-12T03:19:52;10.50;;;6.35;;
60979;SDS011;46851;49.160;8.980;2023-08-12T03:22:19;8.52;;;6.43;;
60979;SDS011;46851;49.160;8.980;2023-08-12T03:24:45;10.95;;;6.68;;
60979;SDS011;46851;49.160;8.980;2023-08-12T03:27:11;8.90;;;6.65;;
60979;SDS011;46851;49.160;8.980;2023-08-12T03:29:37;8.02;;;6.10;;
60979;SDS011;46851;49.160;8.980;2023-08-12T03:32:03;10.45;;;6.45;;
60979;SDS011;46851;49.160;8.980;2023-08-12T03:34:29;12.90;;;6.93;;
60979;SDS011;46851;49.160;8.980;2023-08-12T03:36:56;11.43;;;6.82;;
60979;SDS011;46851;49.160;8.980;2023-08-12T03:39:23;11.20;;;6.65;;
60979;SDS011;46851;49.160;8.980;2023-08-12T03:41:48;13.95;;;6.93;;
60979;SDS011;46851;49.160;8.980;2023-08-12T03:44:15;11.18;;;7.07;;
60979;SDS011;46851;49.160;8.980;2023-08-12T03:46:41;9.68;;;5.43;;
60979;SDS011;46851;49.160;8.980;2023-08-12T03:49:07;10.13;;;6.93;;
60979;SDS011;46851;49.160;8.980;2023-08-12T03:51:33;15.13;;;6.43;;
60979;SDS011;46851;49.160;8.980;2023-08-12T03:53:59;10.30;;;6.38;;
60979;SDS011;46851;49.160;8.980;2023-08-12T03:56:25;9.93;;;6.55;;
60979;SDS011;46851;49.160;8.980;2023-08-12T03:58:51;12.52;;;6.30;;
60979;SDS011;46851;49.160;8.980;2023-08-12T04:01:17;9.70;;;6.38;;
60979;SDS011;46851;49.160;8.980;2023-08-12T04:03:43;9.27;;;6.22;;
60979;SDS011;46851;49.160;8.980;2023-08-12T04:06:09;10.52;;;6.10;;
60979;SDS011;46851;49.160;8.980;2023-08-12T04:08:35;16.60;;;6.82;;
60979;SDS011;46851;49.160;8.980;2023-08-12T04:11:01;8.43;;;6.25;;
60979;SDS011;46851;49.160;8.980;2023-08-12T04:13:27;10.30;;;6.00;;
60979;SDS011;46851;49.160;8.980;2023-08-12T04:15:53;10.02;;;6.68;;
60979;SDS011;46851;49.160;8.980;2023-08-12T04:18:20;8.98;;;6.13;;
60979;SDS011;46851;49.160;8.980;2023-08-12T04:20:46;8.13;;;6.30;;
60979;SDS011;46851;49.160;8.980;2023-08-12T04:23:13;9.10;;;6.40;;
60979;SDS011;46851;49.160;8.980;2023-08-12T04:25:38;9.05;;;6.30;;
60979;SDS011;46851;49.160;8.980;2023-08-12T04:28:05;9.18;;;6.60;;
60979;SDS011;46851;49.160;8.980;2023-08-12T04:30:31;7.78;;;6.65;;
60979;SDS011;46851;49.160;8.980;2023-08-12T04:32:57;9.90;;;6.53;;
60979;SDS011;46851;49.160;8.980;2023-08-12T04:35:23;8.23;;;6.30;;
60979;SDS011;46851;49.160;8.980;2023-08-12T04:37:49;11.52;;;6.53;;
60979;SDS011;46851;49.160;8.980;2023-08-12T04:40:15;11.25;;;6.10;;
60979;SDS011;46851;49.160;8.980;2023-08-12T04:42:41;9.15;;;6.13;;
60979;SDS011;46851;49.160;8.980;2023-08-12T04:45:07;11.77;;;6.50;;
60979;SDS011;46851;49.160;8.980;2023-08-12T04:47:33;9.93;;;6.05;;
60979;SDS011;46851;49.160;8.980;2023-08-12T04:49:59;10.02;;;6.20;;
60979;SDS011;46851;49.160;8.980;2023-08-12T04:52:25;10.93;;;6.53;;
60979;SDS011;46851;49.160;8.980;2023-08-12T04:54:54;10.88;;;6.30;;
60979;SDS011;46851;49.160;8.980;2023-08-12T04:57:20;8.20;;;5.80;;
60979;SDS011;46851;49.160;8.980;2023-08-12T04:59:46;9.82;;;6.35;;
60979;SDS011;46851;49.160;8.980;2023-08-12T05:02:12;10.13;;;6.50;;
60979;SDS011;46851;49.160;8.980;2023-08-12T05:04:38;7.15;;;6.13;;
60979;SDS011;46851;49.160;8.980;2023-08-12T05:07:05;12.10;;;6.20;;
60979;SDS011;46851;49.160;8.980;2023-08-12T05:09:31;10.07;;;6.70;;
60979;SDS011;46851;49.160;8.980;2023-08-12T05:11:57;8.25;;;6.13;;
60979;SDS011;46851;49.160;8.980;2023-08-12T05:14:23;10.18;;;6.18;;
60979;SDS011;46851;49.160;8.980;2023-08-12T05:16:49;11.65;;;7.38;;
60979;SDS011;46851;49.160;8.980;2023-08-12T05:19:15;12.18;;;6.78;;
60979;SDS011;46851;49.160;8.980;2023-08-12T05:21:41;10.30;;;6.68;;
60979;SDS011;46851;49.160;8.980;2023-08-12T05:24:07;9.32;;;6.55;;
60979;SDS011;46851;49.160;8.980;2023-08-12T05:26:33;8.63;;;6.13;;
60979;SDS011;46851;49.160;8.980;2023-08-12T05:28:59;11.02;;;6.40;;
60979;SDS011;46851;49.160;8.980;2023-08-12T05:31:25;11.18;;;7.28;;
60979;SDS011;46851;49.160;8.980;2023-08-12T05:33:52;11.23;;;7.43;;
60979;SDS011;46851;49.160;8.980;2023-08-12T05:36:18;8.90;;;6.38;;
60979;SDS011;46851;49.160;8.980;2023-08-12T05:38:44;9.07;;;6.30;;
60979;SDS011;46851;49.160;8.980;2023-08-12T05:41:10;10.10;;;6.50;;
60979;SDS011;46851;49.160;8.980;2023-08-12T05:43:36;6.90;;;5.95;;
60979;SDS011;46851;49.160;8.980;2023-08-12T05:46:02;7.80;;;5.97;;
60979;SDS011;46851;49.160;8.980;2023-08-12T05:48:28;7.65;;;5.93;;
60979;SDS011;46851;49.160;8.980;2023-08-12T05:50:54;9.23;;;6.55;;
60979;SDS011;46851;49.160;8.980;2023-08-12T05:53:21;8.00;;;5.40;;
60979;SDS011;46851;49.160;8.980;2023-08-12T05:55:47;7.82;;;5.68;;
60979;SDS011;46851;49.160;8.980;2023-08-12T05:58:13;7.93;;;5.60;;
60979;SDS011;46851;49.160;8.980;2023-08-12T06:00:39;13.48;;;5.88;;
60979;SDS011;46851;49.160;8.980;2023-08-12T06:03:05;8.50;;;5.72;;
60979;SDS011;46851;49.160;8.980;2023-08-12T06:05:31;8.10;;;5.53;;
60979;SDS011;46851;49.160;8.980;2023-08-12T06:07:57;9.02;;;5.38;;
60979;SDS011;46851;49.160;8.980;2023-08-12T06:10:23;6.30;;;5.65;;
60979;SDS011;46851;49.160;8.980;2023-08-12T06:12:49;7.95;;;5.43;;
60979;SDS011;46851;49.160;8.980;2023-08-12T06:15:15;10.48;;;5.68;;
60979;SDS011;46851;49.160;8.980;2023-08-12T06:17:41;8.48;;;5.30;;
60979;SDS011;46851;49.160;8.980;2023-08-12T06:20:07;7.50;;;5.30;;
60979;SDS011;46851;49.160;8.980;2023-08-12T06:22:33;10.02;;;5.55;;
60979;SDS011;46851;49.160;8.980;2023-08-12T06:24:59;9.45;;;5.28;;
60979;SDS011;46851;49.160;8.980;2023-08-12T06:27:26;7.20;;;4.82;;
60979;SDS011;46851;49.160;8.980;2023-08-12T06:29:52;9.25;;;4.78;;
60979;SDS011;46851;49.160;8.980;2023-08-12T06:32:18;6.68;;;4.75;;
60979;SDS011;46851;49.160;8.980;2023-08-12T06:34:44;12.98;;;5.35;;
60979;SDS011;46851;49.160;8.980;2023-08-12T06:37:10;9.20;;;4.30;;
60979;SDS011;46851;49.160;8.980;2023-08-12T06:39:36;8.52;;;4.88;;
60979;SDS011;46851;49.160;8.980;2023-08-12T06:42:02;6.88;;;5.05;;
60979;SDS011;46851;49.160;8.980;2023-08-12T06:44:28;6.05;;;4.90;;
60979;SDS011;46851;49.160;8.980;2023-08-12T06:46:54;9.45;;;5.30;;
60979;SDS011;46851;49.160;8.980;2023-08-12T06:49:20;7.85;;;5.07;;
60979;SDS011;46851;49.160;8.980;2023-08-12T06:51:46;5.68;;;4.20;;
60979;SDS011;46851;49.160;8.980;2023-08-12T06:54:12;7.40;;;3.97;;
60979;SDS011;46851;49.160;8.980;2023-08-12T06:56:38;8.70;;;4.57;;
60979;SDS011;46851;49.160;8.980;2023-08-12T06:59:04;9.57;;;4.55;;
60979;SDS011;46851;49.160;8.980;2023-08-12T07:01:30;6.65;;;4.55;;
60979;SDS011;46851;49.160;8.980;2023-08-12T07:03:56;7.32;;;4.78;;
60979;SDS011;46851;49.160;8.980;2023-08-12T07:06:22;6.25;;;4.18;;
60979;SDS011;46851;49.160;8.980;2023-08-12T07:08:48;8.65;;;4.60;;
60979;SDS011;46851;49.160;8.980;2023-08-12T07:11:14;8.23;;;4.50;;
60979;SDS011;46851;49.160;8.980;2023-08-12T07:13:40;9.75;;;4.90;;
60979;SDS011;46851;49.160;8.980;2023-08-12T07:16:07;9.18;;;4.60;;
60979;SDS011;46851;49.160;8.980;2023-08-12T07:18:33;10.63;;;5.25;;
60979;SDS011;46851;49.160;8.980;2023-08-12T07:20:59;8.80;;;5.60;;
60979;SDS011;46851;49.160;8.980;2023-08-12T07:23:26;6.57;;;4.80;;
60979;SDS011;46851;49.160;8.980;2023-08-12T07:25:52;7.45;;;4.75;;
60979;SDS011;46851;49.160;8.980;2023-08-12T07:28:18;11.55;;;6.50;;
60979;SDS011;46851;49.160;8.980;2023-08-12T07:30:44;8.05;;;4.38;;
60979;SDS011;46851;49.160;8.980;2023-08-12T07:33:10;6.13;;;4.45;;
60979;SDS011;46851;49.160;8.980;2023-08-12T07:35:36;5.93;;;4.40;;
60979;SDS011;46851;49.160;8.980;2023-08-12T07:38:02;6.75;;;4.70;;
60979;SDS011;46851;49.160;8.980;2023-08-12T07:40:28;4.90;;;3.90;;
60979;SDS011;46851;49.160;8.980;2023-08-12T07:42:54;7.72;;;5.22;;
60979;SDS011;46851;49.160;8.980;2023-08-12T07:45:21;8.50;;;4.43;;
60979;SDS011;46851;49.160;8.980;2023-08-12T07:47:48;7.97;;;4.70;;
60979;SDS011;46851;49.160;8.980;2023-08-12T07:50:17;7.40;;;4.88;;
60979;SDS011;46851;49.160;8.980;2023-08-12T07:52:43;7.35;;;4.50;;
60979;SDS011;46851;49.160;8.980;2023-08-12T07:55:09;7.40;;;4.45;;
60979;SDS011;46851;49.160;8.980;2023-08-12T07:57:35;5.72;;;4.10;;
60979;SDS011;46851;49.160;8.980;2023-08-12T08:00:01;7.00;;;4.38;;
60979;SDS011;46851;49.160;8.980;2023-08-12T08:02:27;8.00;;;4.30;;
60979;SDS011;46851;49.160;8.980;2023-08-12T08:04:53;5.15;;;4.15;;
60979;SDS011;46851;49.160;8.980;2023-08-12T08:07:19;6.25;;;4.15;;
60979;SDS011;46851;49.160;8.980;2023-08-12T08:09:45;9.20;;;5.00;;
60979;SDS011;46851;49.160;8.980;2023-08-12T08:12:11;5.43;;;3.80;;
60979;SDS011;46851;49.160;8.980;2023-08-12T08:14:37;10.38;;;4.25;;
60979;SDS011;46851;49.160;8.980;2023-08-12T08:17:03;8.98;;;3.88;;
60979;SDS011;46851;49.160;8.980;2023-08-12T08:19:29;4.80;;;3.67;;
60979;SDS011;46851;49.160;8.980;2023-08-12T08:21:56;8.40;;;4.40;;
60979;SDS011;46851;49.160;8.980;2023-08-12T08:24:23;8.80;;;4.55;;
60979;SDS011;46851;49.160;8.980;2023-08-12T08:26:49;10.23;;;4.50;;
60979;SDS011;46851;49.160;8.980;2023-08-12T08:29:15;7.07;;;4.90;;
60979;SDS011;46851;49.160;8.980;2023-08-12T08:31:41;9.65;;;4.60;;
60979;SDS011;46851;49.160;8.980;2023-08-12T08:34:07;4.65;;;4.07;;
60979;SDS011;46851;49.160;8.980;2023-08-12T08:36:34;7.50;;;4.13;;
60979;SDS011;46851;49.160;8.980;2023-08-12T08:39:01;5.63;;;4.47;;
60979;SDS011;46851;49.160;8.980;2023-08-12T08:41:28;8.00;;;4.72;;
60979;SDS011;46851;49.160;8.980;2023-08-12T08:43:56;7.45;;;5.28;;
60979;SDS011;46851;49.160;8.980;2023-08-12T08:46:27;8.85;;;5.40;;
60979;SDS011;46851;49.160;8.980;2023-08-12T08:48:53;6.45;;;4.93;;
60979;SDS011;46851;49.160;8.980;2023-08-12T08:51:20;8.38;;;5.05;;
60979;SDS011;46851;49.160;8.980;2023-08-12T08:53:46;7.90;;;4.55;;
60979;SDS011;46851;49.160;8.980;2023-08-12T08:56:12;5.38;;;4.28;;
60979;SDS011;46851;49.160;8.980;2023-08-12T08:58:38;7.15;;;4.15;;
60979;SDS011;46851;49.160;8.980;2023-08-12T09:01:05;9.20;;;4.93;;
60979;SDS011;46851;49.160;8.980;2023-08-12T09:03:33;7.57;;;4.63;;
60979;SDS011;46851;49.160;8.980;2023-08-12T09:05:59;7.88;;;3.95;;
60979;SDS011;46851;49.160;8.980;2023-08-12T09:08:25;5.95;;;3.83;;
60979;SDS011;46851;49.160;8.980;2023-08-12T09:10:52;7.07;;;3.92;;
60979;SDS011;46851;49.160;8.980;2023-08-12T09:13:18;6.65;;;4.30;;
60979;SDS011;46851;49.160;8.980;2023-08-12T09:15:44;8.00;;;4.07;;
60979;SDS011;46851;49.160;8.980;2023-08-12T09:18:10;9.93;;;4.15;;
60979;SDS011;46851;49.160;8.980;2023-08-12T09:20:37;6.20;;;3.90;;
60979;SDS011;46851;49.160;8.980;2023-08-12T09:23:03;5.78;;;3.90;;
60979;SDS011;46851;49.160;8.980;2023-08-12T09:25:29;8.05;;;3.83;;
60979;SDS011;46851;49.160;8.980;2023-08-12T09:27:58;6.03;;;3.88;;
60979;SDS011;46851;49.160;8.980;2023-08-12T09:33:00;6.43;;;3.38;;
60979;SDS011;46851;49.160;8.980;2023-08-12T09:35:32;8.63;;;3.58;;
60979;SDS011;46851;49.160;8.980;2023-08-12T09:38:03;8.40;;;3.97;;
60979;SDS011;46851;49.160;8.980;2023-08-12T09:40:30;4.65;;;3.28;;
60979;SDS011;46851;49.160;8.980;2023-08-12T09:42:56;4.80;;;3.40;;
60979;SDS011;46851;49.160;8.980;2023-08-12T09:45:25;6.35;;;3.83;;
60979;SDS011;46851;49.160;8.980;2023-08-12T09:47:52;6.63;;;3.88;;
60979;SDS011;46851;49.160;8.980;2023-08-12T09:50:20;4.55;;;3.72;;
60979;SDS011;46851;49.160;8.980;2023-08-12T09:52:46;7.38;;;3.90;;
60979;SDS011;46851;49.160;8.980;2023-08-12T09:55:12;6.75;;;4.03;;
60979;SDS011;46851;49.160;8.980;2023-08-12T09:57:41;7.70;;;3.65;;
60979;SDS011;46851;49.160;8.980;2023-08-12T10:00:08;5.95;;;3.80;;
60979;SDS011;46851;49.160;8.980;2023-08-12T10:02:41;5.75;;;3.28;;
60979;SDS011;46851;49.160;8.980;2023-08-12T10:05:07;7.75;;;3.40;;
60979;SDS011;46851;49.160;8.980;2023-08-12T10:07:35;6.35;;;3.88;;
60979;SDS011;46851;49.160;8.980;2023-08-12T10:10:02;6.82;;;3.28;;
60979;SDS011;46851;49.160;8.980;2023-08-12T10:12:28;7.60;;;4.20;;
60979;SDS011;46851;49.160;8.980;2023-08-12T10:14:54;9.70;;;4.00;;
60979;SDS011;46851;49.160;8.980;2023-08-12T10:17:21;5.32;;;3.95;;
60979;SDS011;46851;49.160;8.980;2023-08-12T10:19:47;6.15;;;3.63;;
60979;SDS011;46851;49.160;8.980;2023-08-12T10:22:13;6.22;;;3.72;;
60979;SDS011;46851;49.160;8.980;2023-08-12T10:24:39;6.15;;;3.40;;
60979;SDS011;46851;49.160;8.980;2023-08-12T10:27:06;8.68;;;4.00;;
60979;SDS011;46851;49.160;8.980;2023-08-12T10:29:32;7.13;;;4.07;;
60979;SDS011;46851;49.160;8.980;2023-08-12T10:31:58;3.53;;;2.85;;
60979;SDS011;46851;49.160;8.980;2023-08-12T10:34:25;5.82;;;3.50;;
60979;SDS011;46851;49.160;8.980;2023-08-12T10:36:55;3.88;;;3.22;;
60979;SDS011;46851;49.160;8.980;2023-08-12T10:39:27;3.75;;;3.10;;
60979;SDS011;46851;49.160;8.980;2023-08-12T10:41:54;4.95;;;3.42;;
60979;SDS011;46851;49.160;8.980;2023-08-12T10:44:21;4.10;;;2.97;;
60979;SDS011;46851;49.160;8.980;2023-08-12T10:46:51;4.55;;;2.88;;
60979;SDS011;46851;49.160;8.980;2023-08-12T10:49:18;6.18;;;3.50;;
60979;SDS011;46851;49.160;8.980;2023-08-12T10:51:45;6.27;;;3.20;;
60979;SDS011;46851;49.160;8.980;2023-08-12T10:54:20;5.00;;;3.20;;
60979;SDS011;46851;49.160;8.980;2023-08-12T11:02:31;5.40;;;3.17;;
60979;SDS011;46851;49.160;8.980;2023-08-12T11:05:12;6.53;;;2.97;;
60979;SDS011;46851;49.160;8.980;2023-08-12T11:12:33;4.90;;;3.20;;
60979;SDS011;46851;49.160;8.980;2023-08-12T11:15:00;4.00;;;3.50;;
60979;SDS011;46851;49.160;8.980;2023-08-12T11:17:31;3.67;;;3.13;;
60979;SDS011;46851;49.160;8.980;2023-08-12T11:19:57;7.13;;;3.55;;
60979;SDS011;46851;49.160;8.980;2023-08-12T11:22:24;5.78;;;3.70;;
60979;SDS011;46851;49.160;8.980;2023-08-12T11:24:50;6.20;;;3.50;;
60979;SDS011;46851;49.160;8.980;2023-08-12T11:27:17;12.88;;;3.75;;
60979;SDS011;46851;49.160;8.980;2023-08-12T11:29:43;5.20;;;3.08;;
60979;SDS011;46851;49.160;8.980;2023-08-12T11:32:09;6.85;;;3.70;;
60979;SDS011;46851;49.160;8.980;2023-08-12T11:34:36;5.97;;;3.35;;
60979;SDS011;46851;49.160;8.980;2023-08-12T11:37:02;10.45;;;3.53;;
60979;SDS011;46851;49.160;8.980;2023-08-12T11:39:28;6.68;;;3.60;;
60979;SDS011;46851;49.160;8.980;2023-08-12T11:41:55;6.32;;;3.35;;
60979;SDS011;46851;49.160;8.980;2023-08-12T11:44:22;6.07;;;3.50;;
60979;SDS011;46851;49.160;8.980;2023-08-12T11:46:49;7.82;;;3.30;;
60979;SDS011;46851;49.160;8.980;2023-08-12T11:49:15;4.40;;;3.60;;
60979;SDS011;46851;49.160;8.980;2023-08-12T11:51:42;4.60;;;3.50;;
60979;SDS011;46851;49.160;8.980;2023-08-12T11:54:09;5.40;;;3.70;;
60979;SDS011;46851;49.160;8.980;2023-08-12T11:56:35;10.23;;;4.28;;
60979;SDS011;46851;49.160;8.980;2023-08-12T11:59:02;7.10;;;3.63;;
60979;SDS011;46851;49.160;8.980;2023-08-12T12:01:28;6.35;;;4.22;;
60979;SDS011;46851;49.160;8.980;2023-08-12T12:03:54;9.50;;;4.10;;
60979;SDS011;46851;49.160;8.980;2023-08-12T12:06:31;6.00;;;4.50;;
60979;SDS011;46851;49.160;8.980;2023-08-12T12:09:00;8.52;;;4.85;;
60979;SDS011;46851;49.160;8.980;2023-08-12T12:11:30;8.13;;;4.75;;
60979;SDS011;46851;49.160;8.980;2023-08-12T12:13:56;8.95;;;5.03;;
60979;SDS011;46851;49.160;8.980;2023-08-12T12:16:22;6.72;;;4.55;;
60979;SDS011;46851;49.160;8.980;2023-08-12T12:18:48;6.85;;;4.35;;
60979;SDS011;46851;49.160;8.980;2023-08-12T12:21:19;7.72;;;4.72;;
60979;SDS011;46851;49.160;8.980;2023-08-12T12:23:46;10.57;;;5.30;;
60979;SDS011;46851;49.160;8.980;2023-08-12T12:26:12;10.63;;;4.80;;
60979;SDS011;46851;49.160;8.980;2023-08-12T12:28:38;7.78;;;4.65;;
60979;SDS011;46851;49.160;8.980;2023-08-12T12:31:04;9.55;;;4.45;;
60979;SDS011;46851;49.160;8.980;2023-08-12T12:33:33;8.25;;;4.72;;
60979;SDS011;46851;49.160;8.980;2023-08-12T12:35:59;6.20;;;5.07;;
60979;SDS011;46851;49.160;8.980;2023-08-12T12:38:25;10.88;;;5.57;;
60979;SDS011;46851;49.160;8.980;2023-08-12T12:40:51;8.00;;;5.88;;
60979;SDS011;46851;49.160;8.980;2023-08-12T12:43:17;6.90;;;4.70;;
60979;SDS011;46851;49.160;8.980;2023-08-12T12:45:43;7.43;;;5.05;;
60979;SDS011;46851;49.160;8.980;2023-08-12T12:48:09;7.25;;;4.82;;
60979;SDS011;46851;49.160;8.980;2023-08-12T12:50:35;6.68;;;5.43;;
60979;SDS011;46851;49.160;8.980;2023-08-12T12:53:02;6.60;;;4.80;;
60979;SDS011;46851;49.160;8.980;2023-08-12T12:55:28;10.05;;;5.32;;
60979;SDS011;46851;49.160;8.980;2023-08-12T12:57:54;6.63;;;4.85;;
60979;SDS011;46851;49.160;8.980;2023-08-12T13:00:20;9.43;;;4.95;;
60979;SDS011;46851;49.160;8.980;2023-08-12T13:02:46;5.35;;;4.53;;
60979;SDS011;46851;49.160;8.980;2023-08-12T13:05:12;6.70;;;4.47;;
60979;SDS011;46851;49.160;8.980;2023-08-12T13:07:38;5.78;;;4.15;;
60979;SDS011;46851;49.160;8.980;2023-08-12T13:10:04;6.40;;;4.18;;
60979;SDS011;46851;49.160;8.980;2023-08-12T13:12:30;5.03;;;3.80;;
60979;SDS011;46851;49.160;8.980;2023-08-12T13:14:56;6.45;;;3.97;;
60979;SDS011;46851;49.160;8.980;2023-08-12T13:17:22;6.70;;;4.40;;
60979;SDS011;46851;49.160;8.980;2023-08-12T13:19:48;6.07;;;3.65;;
60979;SDS011;46851;49.160;8.980;2023-08-12T13:22:14;7.47;;;4.25;;
60979;SDS011;46851;49.160;8.980;2023-08-12T13:24:40;5.95;;;3.45;;
60979;SDS011;46851;49.160;8.980;2023-08-12T13:27:06;6.28;;;3.58;;
60979;SDS011;46851;49.160;8.980;2023-08-12T13:29:33;5.05;;;3.40;;
60979;SDS011;46851;49.160;8.980;2023-08-12T13:31:59;6.20;;;3.50;;
60979;SDS011;46851;49.160;8.980;2023-08-12T13:34:25;6.18;;;3.47;;
60979;SDS011;46851;49.160;8.980;2023-08-12T13:36:51;7.00;;;4.32;;
60979;SDS011;46851;49.160;8.980;2023-08-12T13:39:17;5.97;;;3.80;;
60979;SDS011;46851;49.160;8.980;2023-08-12T13:41:43;4.53;;;3.55;;
60979;SDS011;46851;49.160;8.980;2023-08-12T13:44:09;6.07;;;3.92;;
60979;SDS011;46851;49.160;8.980;2023-08-12T13:46:35;4.82;;;3.42;;
60979;SDS011;46851;49.160;8.980;2023-08-12T13:49:01;4.80;;;3.30;;
60979;SDS011;46851;49.160;8.980;2023-08-12T13:51:27;8.02;;;4.20;;
60979;SDS011;46851;49.160;8.980;2023-08-12T13:53:53;4.82;;;3.55;;
60979;SDS011;46851;49.160;8.980;2023-08-12T13:56:19;4.15;;;3.45;;
60979;SDS011;46851;49.160;8.980;2023-08-12T13:58:45;6.40;;;4.40;;
60979;SDS011;46851;49.160;8.980;2023-08-12T14:01:11;6.55;;;3.72;;
60979;SDS011;46851;49.160;8.980;2023-08-12T14:03:37;5.43;;;3.85;;
60979;SDS011;46851;49.160;8.980;2023-08-12T14:06:03;4.97;;;3.60;;
60979;SDS011;46851;49.160;8.980;2023-08-12T14:08:30;5.70;;;3.60;;
60979;SDS011;46851;49.160;8.980;2023-08-12T14:10:56;7.05;;;4.72;;
60979;SDS011;46851;49.160;8.980;2023-08-12T14:13:22;5.95;;;3.70;;
60979;SDS011;46851;49.160;8.980;2023-08-12T14:15:48;6.82;;;4.18;;
60979;SDS011;46851;49.160;8.980;2023-08-12T14:18:14;5.82;;;4.07;;
60979;SDS011;46851;49.160;8.980;2023-08-12T14:20:40;4.10;;;3.50;;
60979;SDS011;46851;49.160;8.980;2023-08-12T14:23:05;8.80;;;4.63;;
60979;SDS011;46851;49.160;8.980;2023-08-12T14:25:33;6.68;;;3.90;;
60979;SDS011;46851;49.160;8.980;2023-08-12T14:27:59;6.10;;;3.65;;
60979;SDS011;46851;49.160;8.980;2023-08-12T14:30:25;7.70;;;4.28;;
60979;SDS011;46851;49.160;8.980;2023-08-12T14:32:51;6.78;;;3.88;;
60979;SDS011;46851;49.160;8.980;2023-08-12T14:35:18;10.45;;;3.92;;
60979;SDS011;46851;49.160;8.980;2023-08-12T14:37:43;5.63;;;3.92;;
60979;SDS011;46851;49.160;8.980;2023-08-12T14:40:10;5.40;;;3.95;;
60979;SDS011;46851;49.160;8.980;2023-08-12T14:42:36;5.97;;;3.92;;
60979;SDS011;46851;49.160;8.980;2023-08-12T14:45:02;5.85;;;3.72;;
60979;SDS011;46851;49.160;8.980;2023-08-12T14:47:29;8.25;;;4.15;;
60979;SDS011;46851;49.160;8.980;2023-08-12T14:49:55;6.50;;;4.20;;
60979;SDS011;46851;49.160;8.980;2023-08-12T14:52:22;11.40;;;4.05;;
60979;SDS011;46851;49.160;8.980;2023-08-12T14:54:48;9.38;;;4.30;;
60979;SDS011;46851;49.160;8.980;2023-08-12T14:57:14;5.70;;;4.32;;